createdAt,value
2018-09-23T00:01:37.983Z,22.00
2018-09-23T00:04:07.047Z,21.88
2018-09-23T00:06:36.131Z,21.95
2018-09-23T00:09:07.005Z,22.17
2018-09-23T00:11:36.084Z,22.27
2018-09-23T00:14:05.149Z,22.34
2018-09-23T00:16:34.250Z,22.23
2018-09-23T00:19:03.304Z,22.47
2018-09-23T00:21:32.338Z,22.22
2018-09-23T00:24:01.693Z,21.79
2018-09-23T00:26:30.725Z,21.63
2018-09-23T00:28:59.754Z,21.73
2018-09-23T00:31:29.189Z,21.63
2018-09-23T00:33:58.196Z,21.49
2018-09-23T00:36:27.230Z,21.35
2018-09-23T00:38:56.313Z,21.31
2018-09-23T00:41:25.348Z,21.13
2018-09-23T00:43:54.387Z,21.05
2018-09-23T00:46:23.708Z,21.00
2018-09-23T00:48:52.733Z,21.03
2018-09-23T00:51:21.764Z,20.94
2018-09-23T00:53:50.822Z,20.89
2018-09-23T00:56:19.852Z,20.98
2018-09-23T00:58:48.876Z,21.01
2018-09-23T01:01:17.954Z,20.93
2018-09-23T01:03:46.997Z,20.95
2018-09-23T01:06:16.028Z,21.05
2018-09-23T01:08:45.124Z,21.08
2018-09-23T01:11:14.156Z,21.13
2018-09-23T01:13:43.165Z,21.06
2018-09-23T01:16:12.517Z,20.97
2018-09-23T01:18:41.571Z,21.11
2018-09-23T01:21:10.613Z,21.09
2018-09-23T01:23:39.975Z,21.01
2018-09-23T01:26:09.152Z,20.93
2018-09-23T01:28:38.643Z,20.91
2018-09-23T01:31:07.765Z,20.83
2018-09-23T01:33:36.779Z,20.62
2018-09-23T01:36:06.322Z,20.84
2018-09-23T01:38:35.658Z,20.73
2018-09-23T01:41:04.717Z,20.72
2018-09-23T01:43:33.728Z,20.71
2018-09-23T01:46:03.207Z,20.67
2018-09-23T01:48:32.256Z,20.72
2018-09-23T01:51:01.412Z,20.69
2018-09-23T01:53:30.463Z,20.77
2018-09-23T01:55:59.497Z,20.70
2018-09-23T01:58:28.569Z,20.79
2018-09-23T02:00:57.898Z,20.67
2018-09-23T02:03:26.935Z,20.57
2018-09-23T02:05:55.945Z,20.50
2018-09-23T02:08:25.042Z,20.51
2018-09-23T02:10:54.124Z,20.42
2018-09-23T02:13:23.141Z,20.47
2018-09-23T02:15:52.485Z,20.54
2018-09-23T02:18:21.516Z,20.54
2018-09-23T02:20:50.606Z,20.70
2018-09-23T02:23:19.654Z,20.83
2018-09-23T02:25:48.667Z,20.86
2018-09-23T02:28:17.691Z,20.83
2018-09-23T02:30:47.088Z,20.83
2018-09-23T02:33:16.097Z,20.95
2018-09-23T02:35:45.129Z,20.97
2018-09-23T02:38:14.205Z,20.87
2018-09-23T02:40:43.241Z,20.88
2018-09-23T02:43:12.273Z,20.85
2018-09-23T02:45:41.586Z,20.77
2018-09-23T02:48:10.701Z,20.89
2018-09-23T02:50:39.697Z,20.90
2018-09-23T02:53:08.773Z,20.87
2018-09-23T02:55:38.516Z,20.82
2018-09-23T02:58:07.541Z,20.85
2018-09-23T03:00:36.903Z,20.83
2018-09-23T03:03:05.933Z,20.87
2018-09-23T03:05:34.966Z,20.94
2018-09-23T03:08:04.037Z,20.86
2018-09-23T03:10:33.073Z,20.85
2018-09-23T03:13:02.097Z,20.90
2018-09-23T03:15:31.501Z,20.99
2018-09-23T03:18:00.515Z,21.05
2018-09-23T03:20:29.530Z,21.11
2018-09-23T03:22:58.617Z,21.11
2018-09-23T03:25:27.654Z,21.25
2018-09-23T03:27:56.735Z,21.18
2018-09-23T03:30:26.105Z,21.22
2018-09-23T03:32:55.154Z,21.23
2018-09-23T03:35:24.161Z,21.27
2018-09-23T03:37:53.229Z,21.30
2018-09-23T03:40:22.258Z,21.36
2018-09-23T03:42:51.472Z,21.19
2018-09-23T03:45:20.907Z,20.83
2018-09-23T03:47:49.938Z,20.94
2018-09-23T03:50:18.970Z,20.42
2018-09-23T03:52:48.040Z,20.21
2018-09-23T03:55:17.060Z,20.03
2018-09-23T03:57:46.053Z,20.04
2018-09-23T04:00:15.469Z,20.03
2018-09-23T04:02:44.509Z,19.98
2018-09-23T04:05:13.545Z,20.03
2018-09-23T04:07:42.633Z,19.81
2018-09-23T04:10:11.699Z,19.94
2018-09-23T04:12:40.711Z,19.79
2018-09-23T04:15:10.278Z,19.97
2018-09-23T04:17:39.343Z,20.13
2018-09-23T04:20:08.386Z,20.07
2018-09-23T04:22:41.490Z,19.88
2018-09-23T04:25:10.613Z,19.88
2018-09-23T04:27:39.663Z,19.88
2018-09-23T04:30:09.206Z,19.87
2018-09-23T04:32:39.234Z,19.68
2018-09-23T04:35:08.305Z,19.47
2018-09-23T04:37:37.455Z,19.40
2018-09-23T04:40:06.556Z,19.47
2018-09-23T04:42:36.165Z,19.29
2018-09-23T04:45:05.702Z,19.02
2018-09-23T04:47:35.679Z,19.08
2018-09-23T04:50:04.809Z,19.05
2018-09-23T04:52:34.283Z,18.98
2018-09-23T04:55:03.472Z,19.07
2018-09-23T04:57:32.660Z,19.14
2018-09-23T05:00:02.082Z,19.03
2018-09-23T05:02:31.172Z,18.98
2018-09-23T05:05:00.281Z,19.09
2018-09-23T05:07:29.542Z,19.23
2018-09-23T05:09:58.640Z,19.29
2018-09-23T05:12:27.715Z,19.23
2018-09-23T05:14:56.842Z,19.18
2018-09-23T05:17:25.969Z,19.33
2018-09-23T05:19:55.114Z,19.26
2018-09-23T05:22:24.565Z,19.54
2018-09-23T05:24:53.653Z,19.39
2018-09-23T05:27:22.783Z,19.57
2018-09-23T05:29:52.874Z,19.74
2018-09-23T05:32:22.593Z,19.84
2018-09-23T05:34:52.010Z,19.99
2018-09-23T05:37:21.450Z,20.18
2018-09-23T05:39:50.568Z,20.46
2018-09-23T05:42:19.712Z,20.48
2018-09-23T05:44:48.870Z,20.51
2018-09-23T05:47:17.946Z,20.65
2018-09-23T05:49:47.042Z,20.85
2018-09-23T05:52:16.180Z,20.97
2018-09-23T05:54:45.243Z,21.35
2018-09-23T05:57:15.256Z,21.31
2018-09-23T05:59:44.383Z,21.61
2018-09-23T06:02:13.737Z,21.84
2018-09-23T06:04:42.929Z,21.95
2018-09-23T06:07:12.142Z,21.88
2018-09-23T06:09:41.246Z,21.85
2018-09-23T06:12:10.374Z,21.74
2018-09-23T06:14:39.782Z,21.81
2018-09-23T06:17:09.137Z,21.60
2018-09-23T06:19:38.235Z,21.80
2018-09-23T06:22:07.448Z,21.91
2018-09-23T06:24:36.566Z,21.93
2018-09-23T06:27:05.979Z,22.32
2018-09-23T06:29:35.513Z,22.27
2018-09-23T06:32:04.618Z,22.68
2018-09-23T06:34:34.501Z,22.72
2018-09-23T06:37:03.840Z,22.73
2018-09-23T06:39:33.890Z,22.68
2018-09-23T06:42:03.025Z,22.99
2018-09-23T06:44:32.160Z,22.86
2018-09-23T06:47:01.827Z,22.92
2018-09-23T06:49:31.049Z,23.26
2018-09-23T06:52:00.180Z,23.09
2018-09-23T06:54:29.339Z,23.44
2018-09-23T06:56:58.491Z,23.12
2018-09-23T06:59:27.991Z,23.38
2018-09-23T07:01:57.083Z,23.39
2018-09-23T07:04:26.218Z,23.59
2018-09-23T07:06:56.300Z,23.45
2018-09-23T07:09:25.415Z,23.67
2018-09-23T07:11:54.536Z,23.43
2018-09-23T07:14:23.757Z,23.47
2018-09-23T07:16:53.625Z,23.75
2018-09-23T07:19:22.715Z,23.79
2018-09-23T07:21:51.872Z,23.99
2018-09-23T07:24:20.981Z,24.20
2018-09-23T07:26:51.024Z,24.15
2018-09-23T07:29:20.456Z,24.43
2018-09-23T07:31:49.519Z,24.78
2018-09-23T07:34:18.676Z,24.67
2018-09-23T07:36:48.172Z,24.77
2018-09-23T07:39:17.261Z,24.80
2018-09-23T07:41:46.395Z,24.85
2018-09-23T07:44:15.967Z,24.95
2018-09-23T07:46:45.030Z,25.19
2018-09-23T07:49:14.131Z,25.29
2018-09-23T07:51:43.583Z,25.53
2018-09-23T07:54:13.447Z,25.34
2018-09-23T07:56:42.587Z,25.85
2018-09-23T07:59:12.112Z,25.60
2018-09-23T08:01:41.209Z,25.66
2018-09-23T08:04:10.358Z,25.90
2018-09-23T08:06:39.805Z,25.85
2018-09-23T08:09:09.920Z,25.91
2018-09-23T08:11:39.717Z,26.20
2018-09-23T08:14:10.049Z,26.52
2018-09-23T08:16:39.234Z,26.54
2018-09-23T08:19:08.799Z,26.43
2018-09-23T08:21:38.300Z,26.69
2018-09-23T08:24:07.458Z,26.98
2018-09-23T08:26:36.723Z,27.49
2018-09-23T08:29:05.962Z,27.93
2018-09-23T08:31:35.928Z,27.50
2018-09-23T08:34:05.126Z,27.42
2018-09-23T08:36:34.316Z,27.62
2018-09-23T08:39:03.625Z,27.53
2018-09-23T08:41:33.121Z,27.85
2018-09-23T08:44:02.823Z,28.40
2018-09-23T08:46:31.995Z,28.48
2018-09-23T08:49:02.607Z,28.62
2018-09-23T08:51:33.148Z,29.10
2018-09-23T08:54:02.326Z,29.12
2018-09-23T08:56:31.481Z,28.88
2018-09-23T08:59:01.245Z,29.02
2018-09-23T09:01:30.384Z,28.50
2018-09-23T09:04:00.312Z,28.82
2018-09-23T09:06:29.468Z,29.47
2018-09-23T09:08:58.557Z,29.42
2018-09-23T09:11:27.699Z,29.34
2018-09-23T09:13:57.802Z,29.72
2018-09-23T09:16:26.962Z,29.99
2018-09-23T09:18:56.094Z,30.08
2018-09-23T09:21:25.348Z,30.30
2018-09-23T09:23:54.531Z,30.27
2018-09-23T09:26:23.674Z,30.68
2018-09-23T09:28:54.109Z,30.57
2018-09-23T09:31:23.483Z,30.74
2018-09-23T09:33:52.626Z,30.46
2018-09-23T09:36:21.834Z,30.14
2018-09-23T09:38:50.984Z,30.04
2018-09-23T09:41:20.155Z,29.87
2018-09-23T09:43:49.769Z,30.29
2018-09-23T09:46:18.890Z,30.70
2018-09-23T09:48:51.475Z,30.81
2018-09-23T09:51:21.061Z,31.31
2018-09-23T09:53:50.842Z,31.24
2018-09-23T09:56:19.951Z,31.57
2018-09-23T09:58:49.162Z,31.73
2018-09-23T10:01:18.388Z,31.55
2018-09-23T10:03:47.582Z,31.53
2018-09-23T10:06:17.049Z,31.74
2018-09-23T10:08:46.212Z,31.77
2018-09-23T10:11:15.340Z,31.81
2018-09-23T10:13:45.304Z,31.81
2018-09-23T10:16:14.442Z,31.77
2018-09-23T10:18:43.660Z,31.94
2018-09-23T10:21:13.472Z,31.91
2018-09-23T10:23:43.218Z,31.69
2018-09-23T10:26:16.125Z,31.84
2018-09-23T10:28:45.288Z,31.85
2018-09-23T10:31:14.383Z,32.46
2018-09-23T10:33:43.792Z,32.17
2018-09-23T10:36:12.980Z,32.34
2018-09-23T10:38:42.018Z,32.35
2018-09-23T10:41:11.222Z,31.91
2018-09-23T10:43:40.293Z,31.99
2018-09-23T10:46:09.425Z,32.34
2018-09-23T10:48:38.939Z,32.27
2018-09-23T10:51:08.513Z,32.17
2018-09-23T10:53:37.638Z,32.96
2018-09-23T10:56:06.826Z,32.62
2018-09-23T10:58:35.922Z,32.40
2018-09-23T11:01:05.125Z,32.51
2018-09-23T11:03:34.256Z,32.93
2018-09-23T11:06:03.556Z,33.36
2018-09-23T11:08:32.633Z,33.35
2018-09-23T11:11:01.814Z,33.29
2018-09-23T11:13:30.932Z,33.95
2018-09-23T11:16:00.017Z,33.68
2018-09-23T11:18:29.197Z,33.52
2018-09-23T11:20:58.304Z,33.63
2018-09-23T11:23:27.487Z,34.42
2018-09-23T11:25:56.589Z,33.52
2018-09-23T11:28:25.714Z,33.85
2018-09-23T11:30:54.860Z,34.17
2018-09-23T11:33:24.370Z,33.77
2018-09-23T11:35:53.543Z,34.22
2018-09-23T11:38:22.754Z,34.55
2018-09-23T11:40:51.983Z,34.41
2018-09-23T11:43:21.121Z,33.95
2018-09-23T11:45:50.291Z,34.05
2018-09-23T11:48:20.708Z,34.00
2018-09-23T11:50:49.829Z,34.28
2018-09-23T11:53:19.585Z,33.77
2018-09-23T11:55:49.205Z,34.23
2018-09-23T11:58:18.277Z,34.18
2018-09-23T12:00:47.457Z,33.64
2018-09-23T12:03:16.667Z,33.92
2018-09-23T12:05:46.377Z,34.27
2018-09-23T12:08:15.696Z,33.97
2018-09-23T12:10:45.333Z,34.18
2018-09-23T12:13:14.613Z,34.05
2018-09-23T12:15:46.721Z,33.99
2018-09-23T12:18:16.250Z,34.13
2018-09-23T12:20:45.840Z,33.35
2018-09-23T12:23:15.359Z,33.64
2018-09-23T12:25:45.555Z,34.39
2018-09-23T12:28:16.429Z,33.88
2018-09-23T12:30:46.400Z,34.12
2018-09-23T12:33:15.542Z,34.18
2018-09-23T12:35:45.153Z,34.41
2018-09-23T12:38:14.952Z,34.30
2018-09-23T12:40:44.066Z,34.17
2018-09-23T12:43:13.584Z,33.65
2018-09-23T12:45:42.860Z,33.86
2018-09-23T12:48:12.690Z,33.89
2018-09-23T12:50:42.469Z,34.43
2018-09-23T12:53:11.589Z,34.23
2018-09-23T12:55:40.802Z,34.23
2018-09-23T12:58:11.246Z,34.11
2018-09-23T13:00:40.370Z,34.25
2018-09-23T13:03:09.454Z,34.25
2018-09-23T13:05:39.012Z,33.54
2018-09-23T13:08:08.528Z,33.29
2018-09-23T13:10:37.669Z,33.25
2018-09-23T13:13:07.277Z,32.75
2018-09-23T13:15:36.473Z,32.91
2018-09-23T13:18:06.550Z,32.99
2018-09-23T13:20:35.741Z,33.02
2018-09-23T13:23:04.901Z,33.34
2018-09-23T13:25:34.052Z,33.27
2018-09-23T13:28:03.547Z,33.66
2018-09-23T13:30:33.652Z,33.69
2018-09-23T13:33:02.801Z,34.02
2018-09-23T13:35:32.120Z,33.41
2018-09-23T13:38:01.333Z,33.49
2018-09-23T13:40:30.627Z,33.42
2018-09-23T13:43:00.158Z,32.82
2018-09-23T13:45:29.340Z,33.24
2018-09-23T13:47:58.509Z,33.60
2018-09-23T13:50:28.391Z,33.54
2018-09-23T13:52:57.474Z,33.61
2018-09-23T13:55:26.628Z,33.63
2018-09-23T13:57:56.090Z,33.57
2018-09-23T14:00:25.256Z,33.70
2018-09-23T14:02:54.417Z,33.03
2018-09-23T14:05:23.906Z,32.58
2018-09-23T14:07:53.218Z,33.31
2018-09-23T14:10:22.345Z,32.98
2018-09-23T14:12:53.287Z,32.57
2018-09-23T14:15:22.446Z,32.45
2018-09-23T14:17:51.576Z,32.93
2018-09-23T14:20:21.155Z,33.08
2018-09-23T14:22:50.274Z,32.69
2018-09-23T14:25:19.362Z,33.25
2018-09-23T14:27:48.651Z,32.86
2018-09-23T14:30:17.782Z,32.61
2018-09-23T14:32:47.285Z,32.82
2018-09-23T14:35:18.132Z,32.66
2018-09-23T14:37:47.268Z,32.41
2018-09-23T14:40:16.388Z,32.08
2018-09-23T14:42:45.822Z,32.07
2018-09-23T14:45:14.929Z,32.12
2018-09-23T14:47:44.966Z,32.33
2018-09-23T14:50:14.106Z,32.25
2018-09-23T14:52:44.244Z,32.00
2018-09-23T14:55:13.453Z,31.96
2018-09-23T14:57:42.868Z,31.82
2018-09-23T15:00:12.019Z,31.75
2018-09-23T15:02:41.138Z,31.70
2018-09-23T15:05:10.314Z,31.78
2018-09-23T15:07:39.492Z,31.87
2018-09-23T15:10:08.702Z,31.72
2018-09-23T15:12:37.940Z,31.79
2018-09-23T15:15:07.979Z,31.44
2018-09-23T15:17:37.144Z,31.73
2018-09-23T15:20:07.271Z,31.98
2018-09-23T15:22:36.440Z,31.97
2018-09-23T15:25:05.625Z,31.81
2018-09-23T15:27:35.332Z,31.72
2018-09-23T15:30:04.586Z,31.68
2018-09-23T15:32:33.736Z,31.58
2018-09-23T15:35:03.285Z,31.66
2018-09-23T15:37:32.378Z,31.62
2018-09-23T15:40:01.455Z,31.58
2018-09-23T15:42:30.590Z,31.51
2018-09-23T15:44:59.714Z,31.43
2018-09-23T15:47:28.866Z,31.42
2018-09-23T15:49:58.035Z,31.34
2018-09-23T15:52:27.207Z,31.34
2018-09-23T15:54:56.317Z,31.30
2018-09-23T15:57:25.463Z,31.19
2018-09-23T15:59:54.630Z,31.11
2018-09-23T16:02:23.725Z,31.09
2018-09-23T16:04:52.860Z,31.04
2018-09-23T16:07:22.724Z,31.04
2018-09-23T16:09:51.829Z,30.96
2018-09-23T16:12:20.955Z,30.91
2018-09-23T16:14:50.054Z,30.79
2018-09-23T16:17:19.131Z,30.85
2018-09-23T16:19:48.246Z,30.83
2018-09-23T16:22:17.386Z,30.55
2018-09-23T16:24:46.477Z,30.55
2018-09-23T16:27:16.894Z,30.67
2018-09-23T16:29:46.017Z,30.65
2018-09-23T16:32:15.165Z,30.62
2018-09-23T16:34:44.594Z,30.29
2018-09-23T16:37:13.691Z,30.18
2018-09-23T16:39:42.814Z,30.23
2018-09-23T16:42:12.247Z,30.11
2018-09-23T16:44:41.417Z,30.03
2018-09-23T16:47:11.394Z,29.81
2018-09-23T16:49:40.871Z,29.72
2018-09-23T16:52:09.969Z,29.78
2018-09-23T16:54:39.133Z,29.54
2018-09-23T16:57:08.611Z,29.59
2018-09-23T16:59:37.745Z,29.46
2018-09-23T17:02:06.886Z,29.65
2018-09-23T17:04:36.373Z,29.50
2018-09-23T17:07:05.526Z,29.78
2018-09-23T17:09:35.490Z,29.71
2018-09-23T17:12:04.685Z,29.60
2018-09-23T17:14:33.759Z,29.23
2018-09-23T17:17:02.849Z,29.34
2018-09-23T17:19:32.536Z,29.52
2018-09-23T17:22:01.736Z,29.28
2018-09-23T17:24:30.859Z,28.86
2018-09-23T17:27:00.650Z,28.55
2018-09-23T17:29:29.826Z,28.50
2018-09-23T17:31:59.310Z,28.52
2018-09-23T17:34:28.508Z,28.71
2018-09-23T17:36:58.240Z,28.81
2018-09-23T17:39:27.348Z,28.85
2018-09-23T17:41:56.856Z,28.37
2018-09-23T17:44:25.936Z,28.34
2018-09-23T17:46:55.791Z,28.19
2018-09-23T17:49:25.289Z,28.06
2018-09-23T17:51:55.434Z,28.16
2018-09-23T17:54:24.522Z,28.16
2018-09-23T17:56:53.998Z,28.02
2018-09-23T17:59:23.151Z,27.97
2018-09-23T18:01:52.364Z,28.00
2018-09-23T18:04:22.326Z,27.93
2018-09-23T18:06:52.448Z,28.06
2018-09-23T18:09:21.657Z,27.94
2018-09-23T18:11:50.802Z,28.01
2018-09-23T18:14:19.872Z,28.02
2018-09-23T18:16:49.025Z,27.96
2018-09-23T18:19:18.455Z,27.86
2018-09-23T18:21:47.599Z,28.06
2018-09-23T18:24:16.710Z,28.20
2018-09-23T18:26:46.301Z,28.45
2018-09-23T18:29:16.319Z,28.28
2018-09-23T18:31:45.480Z,28.32
2018-09-23T18:34:15.027Z,28.26
2018-09-23T18:36:44.525Z,28.33
2018-09-23T18:39:13.720Z,28.09
2018-09-23T18:41:43.241Z,28.04
2018-09-23T18:44:12.368Z,28.10
2018-09-23T18:46:41.665Z,27.89
2018-09-23T18:49:10.930Z,27.82
2018-09-23T18:51:40.042Z,27.75
2018-09-23T18:54:15.218Z,27.71
2018-09-23T18:56:45.217Z,27.65
2018-09-23T18:59:15.098Z,27.65
2018-09-23T19:01:44.640Z,27.63
2018-09-23T19:04:13.824Z,27.28
2018-09-23T19:06:42.986Z,27.30
2018-09-23T19:09:12.549Z,27.42
2018-09-23T19:11:41.768Z,27.23
2018-09-23T19:14:12.095Z,27.22
2018-09-23T19:16:41.891Z,27.06
2018-09-23T19:19:13.577Z,27.27
2018-09-23T19:21:42.790Z,27.02
2018-09-23T19:24:12.728Z,27.00
2018-09-23T19:26:42.916Z,26.83
2018-09-23T19:29:12.512Z,26.81
2018-09-23T19:31:41.728Z,26.56
2018-09-23T19:34:11.719Z,26.59
2018-09-23T19:36:40.929Z,26.60
2018-09-23T19:39:11.133Z,26.98
2018-09-23T19:41:40.596Z,26.63
2018-09-23T19:44:10.478Z,26.37
2018-09-23T19:46:39.701Z,26.05
2018-09-23T19:49:08.875Z,26.13
2018-09-23T19:51:38.408Z,25.83
2018-09-23T19:54:07.495Z,25.69
2018-09-23T19:56:37.694Z,25.55
2018-09-23T19:59:07.283Z,25.38
2018-09-23T20:01:36.797Z,25.31
2018-09-23T20:04:05.933Z,25.12
2018-09-23T20:06:36.012Z,25.20
2018-09-23T20:09:06.536Z,25.13
2018-09-23T20:11:35.638Z,25.10
2018-09-23T20:14:04.869Z,24.90
2018-09-23T20:16:34.040Z,24.86
2018-09-23T20:19:03.151Z,24.67
2018-09-23T20:21:32.438Z,24.88
2018-09-23T20:24:02.135Z,24.69
2018-09-23T20:26:31.322Z,24.43
2018-09-23T20:29:01.704Z,24.64
2018-09-23T20:31:30.848Z,24.80
2018-09-23T20:33:59.992Z,24.75
2018-09-23T20:36:29.446Z,24.82
2018-09-23T20:38:58.624Z,24.35
2018-09-23T20:41:27.739Z,24.39
2018-09-23T20:43:58.028Z,24.00
2018-09-23T20:58:19.617Z,24.98
2018-09-23T21:00:49.161Z,25.03
2018-09-23T21:03:18.830Z,25.07
2018-09-23T21:05:47.941Z,24.91
2018-09-23T21:08:18.260Z,24.26
2018-09-23T21:10:47.369Z,23.96
2018-09-23T21:13:16.824Z,23.89
2018-09-23T21:15:46.698Z,23.85
2018-09-23T21:18:15.773Z,23.88
2018-09-23T21:20:44.830Z,23.64
2018-09-23T21:23:14.294Z,23.71
2018-09-23T21:25:43.409Z,23.43
2018-09-23T21:28:13.233Z,23.35
2018-09-23T21:30:44.823Z,23.35
2018-09-23T21:33:14.285Z,23.51
2018-09-23T21:35:43.431Z,23.59
2018-09-23T21:38:12.650Z,23.41
2018-09-23T21:40:41.916Z,23.39
2018-09-23T21:43:11.112Z,23.43
2018-09-23T21:45:40.600Z,23.20
2018-09-23T21:48:09.780Z,23.09
2018-09-23T21:50:39.423Z,23.14
2018-09-23T21:53:08.824Z,23.30
2018-09-23T21:55:37.922Z,23.24
2018-09-23T21:58:07.014Z,23.03
2018-09-23T22:00:41.106Z,22.95
2018-09-23T22:03:10.620Z,23.20
2018-09-23T22:05:40.104Z,23.10
2018-09-23T22:08:09.965Z,22.98
2018-09-23T22:10:39.436Z,22.86
2018-09-23T22:13:08.887Z,22.87
2018-09-23T22:15:38.279Z,22.89
2018-09-23T22:18:07.414Z,22.70
2018-09-23T22:20:36.474Z,22.58
2018-09-23T22:23:06.533Z,22.71
2018-09-23T22:25:35.584Z,22.87
2018-09-23T22:28:04.793Z,23.01
2018-09-23T22:30:34.207Z,23.15
2018-09-23T22:33:03.271Z,23.18
2018-09-23T22:35:32.341Z,23.13
2018-09-23T22:38:01.455Z,23.21
2018-09-23T22:40:30.490Z,23.12
2018-09-23T22:42:59.620Z,23.09
2018-09-23T22:45:29.419Z,22.97
2018-09-23T22:47:58.498Z,22.88
2018-09-23T22:50:27.594Z,22.86
2018-09-23T22:52:56.696Z,22.69
2018-09-23T22:55:25.746Z,22.59
2018-09-23T22:57:54.804Z,22.54
2018-09-23T23:00:23.901Z,22.39
2018-09-23T23:02:53.061Z,22.18
2018-09-23T23:05:22.119Z,22.16
2018-09-23T23:07:51.522Z,22.20
2018-09-23T23:10:20.550Z,22.25
2018-09-23T23:12:49.728Z,22.19
2018-09-23T23:15:19.438Z,22.10
2018-09-23T23:17:48.527Z,21.98
2018-09-23T23:20:18.132Z,21.89
2018-09-23T23:22:47.573Z,21.76
2018-09-23T23:25:16.643Z,21.72
2018-09-23T23:27:45.700Z,21.60
2018-09-23T23:30:14.823Z,21.69
2018-09-23T23:32:43.879Z,21.77
2018-09-23T23:35:12.985Z,21.74
2018-09-23T23:37:42.462Z,21.63
2018-09-23T23:40:12.556Z,21.71
2018-09-23T23:42:41.634Z,21.71
2018-09-23T23:45:11.077Z,21.68
2018-09-23T23:47:41.082Z,21.61
2018-09-23T23:50:10.169Z,21.62
2018-09-23T23:52:39.882Z,21.82
2018-09-23T23:55:08.942Z,21.88
2018-09-23T23:57:38.004Z,21.98
